Dubai, United Arab Emirates
Current Conditions -  °F | °C
As of 2:00 AM on Wednesday 26 Nov 2014 (Local Time) from OMDB Reporting Station
Clear Clear  
Wind Chill: 25°   Ceiling: Unl
Heat Index: 26°   Visibility: 6mi
Dew Point: 19°   Wind: 7mph
Humidity: 69%   Direction: 110°ESE
Pressure: 29.88"   Gusts: NA
Location:  25.27°N, 55.33°E
Report Text: OMDB 252200Z 11006KT 060V130 CAVOK 25/19 Q1012 NOSIG
Loading
Personal Weather Stations






























Interactive Weather Map New forecast layout! Learn more

10-Day Weather Forecast

Advertisements
Track Severe Weather on mobile